Flight Track Log - Related Links

Times and Time Zones

All times are in EDT time to prevent confusion due to time zone crossing. See the AAL963 flight status page for this flight to view local times or setup timezone preferences in your user account.

Time Position Orientation Groundspeed Altitude Reporting Facility
EDT Latitude Longitude Course Direction KTS MPH feet Rate Location/Type
Wed 09:42:09 PM 32.8550 -97.0510 181° South 181 208 2,100  Level FlightAware ADS-B
Wed 09:42:34 PM 32.8330 -97.0520 182° South 193 222 2,300 577 Climbing FlightAware ADS-B
Wed 09:43:01 PM 32.8040 -97.0520 180° South 234 269 2,600 1,138 Climbing FlightAware ADS-B
Wed 09:43:32 PM 32.7710 -97.0530 181° South 241 277 3,400 1,759 Climbing FlightAware ADS-B
Wed 09:43:59 PM 32.7400 -97.0540 182° South 245 282 4,300 1,714 Climbing FlightAware ADS-B
Wed 09:44:28 PM 32.7080 -97.0540 180° South 250 288 5,000 1,418 Climbing FlightAware ADS-B
Wed 09:44:54 PM 32.6760 -97.0550 182° South 264 304 5,600 1,538 Climbing FlightAware ADS-B
Wed 09:45:07 PM 32.6590 -97.0550 180° South 267 307 6,000 1,692 Climbing FlightAware ADS-B
Wed 09:45:33 PM 32.6260 -97.0550 180° South 273 314 6,700 1,684 Climbing FlightAware ADS-B
Wed 09:46:04 PM 32.5920 -97.0440 165° South 279 321 7,600 1,826 Climbing FlightAware ADS-B
Wed 09:46:19 PM 32.5730 -97.0300 148° Southeast 279 321 8,100 1,600 Climbing FlightAware ADS-B
Wed 09:46:49 PM 32.5430 -97.0080 148° Southeast 281 323 8,800 1,650 Climbing FlightAware ADS-B
Wed 09:46:59 PM 32.5300 -96.9980 147° Southeast 283 326 9,200 1,800 Climbing FlightAware ADS-B
Wed 09:47:29 PM 32.4970 -96.9720 146° Southeast 288 331 10,000 1,151 Climbing FlightAware ADS-B
Wed 09:48:12 PM 32.4450 -96.9340 148° Southeast 315 362 10,600 857 Climbing FlightAware ADS-B
Wed 09:48:53 PM 32.3910 -96.8940 148° Southeast 348 400 11,200 1,229 Climbing FlightAware ADS-B
Wed 09:49:35 PM 32.3310 -96.8500 148° Southeast 365 420 12,300 1,481 Climbing FlightAware ADS-B
Wed 09:50:14 PM 32.2850 -96.8180 150° Southeast 373 429 13,200 1,857 Climbing FlightAware ADS-B
Wed 09:50:59 PM 32.1970 -96.7820 161° South 384 442 14,900 2,063 Climbing FlightAware ADS-B
Wed 09:51:18 PM 32.1652 -96.7698 162° South 389 448 15,400 1,607 Climbing FlightAware ADS-B
Wed 09:51:55 PM 32.0998 -96.7453 162° South 399 459 16,400 1,676 Climbing FlightAware ADS-B
Wed 09:52:26 PM 32.0459 -96.7248 162° South 405 466 17,300 1,846 Climbing FlightAware ADS-B
Wed 09:53:00 PM 31.9849 -96.7015 162° South 408 470 18,400 1,846 Climbing FlightAware ADS-B
Wed 09:53:44 PM 31.9048 -96.6711 162° South 413 475 19,700 1,703 Climbing FlightAware ADS-B
Wed 09:54:14 PM 31.8495 -96.6496 162° South 419 482 20,500 1,688 Climbing FlightAware ADS-B
Wed 09:54:48 PM 31.7876 -96.6238 160° South 425 489 21,500 1,588 Climbing FlightAware ADS-B
Wed 09:55:22 PM 31.7238 -96.5974 161° South 431 496 22,300 1,500 Climbing FlightAware ADS-B
Wed 09:56:52 PM 31.5495 -96.5264 161° South 445 512 24,600 1,552 Climbing FlightAware ADS-B
Wed 09:57:18 PM 31.4989 -96.5060 161° South 448 516 25,300 1,474 Climbing FlightAware ADS-B
Wed 09:57:49 PM 31.4378 -96.4832 162° South 454 522 26,000 1,258 Climbing FlightAware ADS-B
Wed 09:58:20 PM 31.3749 -96.4601 163° South 458 527 26,600 1,161 Climbing FlightAware ADS-B
Wed 09:58:51 PM 31.3119 -96.4368 162° South 463 533 27,200 1,125 Climbing FlightAware ADS-B
Wed 09:59:40 PM 31.2116 -96.3989 162° South 469 540 28,100 1,100 Climbing FlightAware ADS-B
Wed 09:59:51 PM 31.1905 -96.3876 153° Southeast 468 539 28,300 947 Climbing FlightAware ADS-B
Wed 09:59:59 PM 31.1748 -96.3764 149° Southeast 467 537 28,400 947 Climbing FlightAware ADS-B
Wed 10:00:29 PM 31.1295 -96.3246 128° Southeast 467 537 28,900 744 Climbing FlightAware ADS-B
Wed 10:02:00 PM 31.0117 -96.1324 125° Southeast 490 564 29,900 689 Climbing FlightAware ADS-B
Wed 10:02:31 PM 30.9706 -96.0654 126° Southeast 496 571 30,300 774 Climbing FlightAware ADS-B
Wed 10:03:02 PM 30.9286 -95.9976 126° Southeast 500 575 30,700 830 Climbing FlightAware ADS-B
Wed 10:04:05 PM 30.8442 -95.8612 126° Southeast 506 582 31,600 968 Climbing FlightAware ADS-B
Wed 10:04:35 PM 30.8023 -95.7942 126° Southeast 506 582 32,200 1,187 Climbing FlightAware ADS-B
Wed 10:05:36 PM 30.7191 -95.6608 126° Southeast 499 574 33,400 1,109 Climbing FlightAware ADS-B
Wed 10:06:07 PM 30.6775 -95.5939 126° Southeast 498 573 33,900 984 Climbing FlightAware ADS-B
Wed 10:06:37 PM 30.6369 -95.5288 126° Southeast 496 571 34,400 357 Climbing FlightAware ADS-B
Wed 10:09:12 PM 30.4284 -95.1969 126° Southeast 493 567 35,000 96 Climbing FlightAware ADS-B
Wed 10:12:51 PM 30.1315 -94.7290 126° Southeast 500 575 35,000  Level FlightAware ADS-B
Wed 10:13:21 PM 30.0897 -94.6636 126° Southeast 501 577 35,000  Level FlightAware ADS-B
Wed 10:14:52 PM 29.9644 -94.4679 127° Southeast 501 577 35,000  Level FlightAware ADS-B
Wed 10:16:54 PM 29.7964 -94.2071 127° Southeast 500 575 35,000  Level FlightAware ADS-B
Wed 10:18:07 PM 29.6944 -94.0543 131° Southeast 500 575 35,000  Level FlightAware ADS-B
Wed 10:20:29 PM 29.4352 -93.8231 143° Southeast 499 574 35,000  Level FlightAware ADS-B
Wed 10:21:03 PM 29.3708 -93.7682 143° Southeast 499 574 35,000  Level FlightAware ADS-B
Wed 10:21:47 PM 29.2905 -93.6998 143° Southeast 500 575 35,000  Level FlightAware ADS-B
Wed 10:22:19 PM 29.2308 -93.6491 143° Southeast 501 577 35,000  Level FlightAware ADS-B
Wed 10:22:51 PM 29.1705 -93.5981 144° Southeast 502 578 35,000  Level FlightAware ADS-B
Wed 10:23:21 PM 29.1144 -93.5506 144° Southeast 503 579 35,000  Level FlightAware ADS-B
Wed 10:23:52 PM 29.0571 -93.5022 144° Southeast 505 581 35,000  Level FlightAware ADS-B
Wed 10:24:23 PM 28.9989 -93.4530 144° Southeast 505 581 35,000  Level FlightAware ADS-B
Wed 10:24:54 PM 28.9402 -93.4036 144° Southeast 505 581 35,000  Level FlightAware ADS-B
Wed 10:25:25 PM 28.8823 -93.3551 144° Southeast 503 579 35,000 -61 Level FlightAware ADS-B
Wed 10:26:32 PM 28.7736 -93.2619 144° Southeast 504 580 34,900 -47 Descending Houston Center
Wed 10:27:33 PM 28.6617 -93.1686 144° Southeast 501 577 34,900 49 Level Houston Center
Wed 10:28:34 PM 28.5481 -93.0744 144° Southeast 504 580 35,000 49 Climbing Houston Center
Wed 10:29:35 PM 28.4350 -92.9800 144° Southeast 504 580 35,000  Level Houston Center
Wed 10:30:36 PM 28.3214 -92.8858 144° Southeast 505 581 35,000 -49 Level Houston Center
Wed 10:31:37 PM 28.1858 -92.7733 144° Southeast 505 581 34,900  Descending Houston Center
Wed 10:32:38 PM 28.0719 -92.6794 144° Southeast 505 581 35,000 49 Climbing Houston Center
Wed 10:33:39 PM 27.9581 -92.5864 144° Southeast 504 580 35,000  Level Houston Center
Wed 10:34:41 PM 27.8456 -92.4919 143° Southeast 504 580 35,000 -49 Level Houston Center
Wed 10:35:42 PM 27.7317 -92.4006 145° Southeast 503 579 34,900  Descending Houston Center
Wed 10:36:43 PM 27.6178 -92.3081 144° Southeast 504 580 35,000  Climbing Houston Center
Wed 10:37:44 PM 27.5044 -92.2147 144° Southeast 505 581 34,900  Descending Houston Center
Wed 10:38:45 PM 27.3906 -92.1250 145° Southeast 502 578 35,000  Climbing Houston Center
Wed 10:39:46 PM 27.2778 -92.0322 144° Southeast 501 577 34,900 -49 Descending Houston Center
Wed 10:40:47 PM 27.1622 -91.9400 145° Southeast 507 583 34,900 49 Level Houston Center
Wed 10:41:48 PM 27.0481 -91.8469 144° Southeast 507 583 35,000  Climbing Houston Center
Wed 10:42:49 PM 26.9097 -91.7358 144° Southeast 508 585 34,900  Descending Houston Center
Wed 10:43:50 PM 26.8025 -91.6497 144° Southeast 510 587 35,000  Climbing Houston Center
Wed 10:44:51 PM 26.6867 -91.5592 145° Southeast 509 586 34,900  Descending Houston Center
Wed 10:45:52 PM 26.5725 -91.4689 145° Southeast 507 583 35,000 49 Climbing Houston Center
Wed 10:46:53 PM 26.4425 -91.3703 146° Southeast 505 581 35,000  Level Houston Center
Wed 10:48:00 PM 26.3286 -91.2665 145° Southeast  Level FlightAware Approximate
Wed 10:55:00 PM 25.5724 -90.6749 145° Southeast  Level FlightAware Approximate
Wed 10:56:00 PM 25.4642 -90.5910 145° Southeast  Level FlightAware Approximate
Wed 10:57:00 PM 25.3559 -90.5073 145° Southeast  Level FlightAware Approximate
Wed 10:58:00 PM 25.2476 -90.4237 145° Southeast  Level FlightAware Approximate
Wed 10:59:00 PM 25.1392 -90.3403 145° Southeast  Level FlightAware Approximate
Wed 11:00:00 PM 25.0308 -90.2570 145° Southeast  Level FlightAware Approximate
Wed 11:01:00 PM 24.9225 -90.1736 145° Southeast  Level FlightAware Approximate
Wed 11:02:00 PM 24.8141 -90.0904 145° Southeast  Level FlightAware Approximate
Wed 11:03:00 PM 24.7057 -90.0073 145° Southeast  Level FlightAware Approximate
Wed 11:04:00 PM 24.5973 -89.9243 145° Southeast  Level FlightAware Approximate
Wed 11:05:00 PM 24.4900 -89.8400 138° Southeast  Level FlightAware Approximate
Wed 11:06:00 PM 24.3827 -89.7559 145° Southeast  Level FlightAware Approximate
Wed 11:07:00 PM 24.2747 -89.6728 145° Southeast  Level FlightAware Approximate
Wed 11:08:00 PM 24.1634 -89.5951 148° Southeast  Level FlightAware Approximate
Wed 11:09:00 PM 24.0518 -89.5179 148° Southeast  Level FlightAware Approximate
Wed 11:10:00 PM 23.9439 -89.4348 145° Southeast  Level FlightAware Approximate
Wed 11:11:00 PM 23.8360 -89.3517 145° Southeast  Level FlightAware Approximate
Wed 11:12:00 PM 23.7281 -89.2688 145° Southeast  Level FlightAware Approximate
Wed 11:13:00 PM 23.6201 -89.1860 145° Southeast  Level FlightAware Approximate
Wed 11:14:00 PM 23.5112 -89.1049 146° Southeast  Level FlightAware Approximate
Wed 11:15:00 PM 23.4021 -89.0240 146° Southeast  Level FlightAware Approximate
Wed 11:16:00 PM 23.2929 -88.9433 146° Southeast  Level FlightAware Approximate
Wed 11:17:00 PM 23.1838 -88.8626 146° Southeast  Level FlightAware Approximate
Wed 11:17:22 PM 22.8320 -88.6020 145° Southeast 526 605 35,000  Level FlightAware ADS-B
Wed 11:17:50 PM 22.7680 -88.5550 146° Southeast 527 606 35,000  Level FlightAware ADS-B
Wed 11:18:00 PM 23.0755 -88.7806 145° Southeast  Level FlightAware Approximate
Wed 11:18:31 PM 22.6950 -88.5010 146° Southeast 526 605 35,000  Level FlightAware ADS-B
Wed 11:19:21 PM 22.5870 -88.4160 144° Southeast 526 605 35,000  Level FlightAware ADS-B
Wed 11:19:54 PM 22.5290 -88.3600 138° Southeast 527 606 35,000  Level FlightAware ADS-B
Wed 11:20:43 PM 22.4480 -88.2770 137° Southeast 527 606 35,000  Level FlightAware ADS-B
Wed 11:21:24 PM 22.3740 -88.2020 137° Southeast 526 605 35,000  Level FlightAware ADS-B
Wed 11:22:00 PM 22.3080 -88.1350 137° Southeast 526 605 35,000  Level FlightAware ADS-B
Wed 11:22:47 PM 22.2230 -88.0490 137° Southeast 526 605 35,000  Level FlightAware ADS-B
Wed 11:23:29 PM 22.1490 -87.9740 137° Southeast 527 606 35,000  Level FlightAware ADS-B
Wed 11:24:11 PM 22.0750 -87.8990 137° Southeast 527 606 35,000  Level FlightAware ADS-B
Wed 11:24:58 PM 21.9950 -87.8190 137° Southeast 527 606 35,000  Level FlightAware ADS-B
Wed 11:25:48 PM 21.9120 -87.7350 137° Southeast 527 606 35,000  Level FlightAware ADS-B
Wed 11:26:31 PM 21.8300 -87.6530 137° Southeast 527 606 35,000  Level FlightAware ADS-B
Wed 11:27:08 PM 21.7600 -87.5840 138° Southeast 525 604 35,000  Level FlightAware ADS-B
Wed 11:27:52 PM 21.6810 -87.5060 137° Southeast 524 603 35,000  Level FlightAware ADS-B
Wed 11:28:36 PM 21.6080 -87.4330 137° Southeast 522 601 35,000  Level FlightAware ADS-B
Wed 11:29:18 PM 21.5200 -87.3460 137° Southeast 519 597 35,000  Level FlightAware ADS-B
Wed 11:30:02 PM 21.4420 -87.2690 137° Southeast 517 595 35,000  Level FlightAware ADS-B
Wed 11:30:46 PM 21.3650 -87.1930 137° Southeast 517 595 35,000  Level FlightAware ADS-B
Wed 11:31:30 PM 21.2860 -87.1150 137° Southeast 515 593 35,000  Level FlightAware ADS-B
Wed 11:32:00 PM 21.2350 -87.0650 138° Southeast 515 593 35,000  Level FlightAware ADS-B
Wed 11:32:44 PM 21.1570 -86.9880 137° Southeast 513 590 35,000  Level FlightAware ADS-B
Wed 11:33:28 PM 21.0810 -86.9130 137° Southeast 513 590 35,000  Level FlightAware ADS-B
Wed 11:34:09 PM 21.0090 -86.8430 138° Southeast 513 590 35,000  Level FlightAware ADS-B
Wed 11:34:52 PM 20.9330 -86.7700 138° Southeast 513 590 35,000  Level FlightAware ADS-B
Wed 11:35:35 PM 20.8580 -86.6960 137° Southeast 513 590 35,000  Level FlightAware ADS-B
Wed 11:36:13 PM 20.7900 -86.6300 138° Southeast 512 589 35,000  Level FlightAware ADS-B
Wed 11:36:57 PM 20.7120 -86.5550 138° Southeast 513 590 35,000  Level FlightAware ADS-B
Wed 11:37:37 PM 20.6450 -86.4900 138° Southeast 513 590 35,000  Level FlightAware ADS-B
Wed 11:38:19 PM 20.5710 -86.4180 138° Southeast 513 590 35,000  Level FlightAware ADS-B
Wed 11:38:58 PM 20.5010 -86.3510 138° Southeast 513 590 35,000  Level FlightAware ADS-B
Wed 11:39:48 PM 20.4230 -86.2740 137° Southeast 513 590 35,000  Level FlightAware ADS-B
Wed 11:40:30 PM 20.3460 -86.2010 138° Southeast 513 590 35,000  Level FlightAware ADS-B
Wed 11:41:06 PM 20.2930 -86.1480 137° Southeast 513 590 35,000  Level FlightAware ADS-B
Wed 11:41:44 PM 20.2160 -86.0770 139° Southeast 514 592 35,000  Level FlightAware ADS-B
Wed 11:42:34 PM 20.1190 -85.9840 138° Southeast 514 592 35,000  Level FlightAware ADS-B
Wed 11:43:13 PM 20.0500 -85.9180 138° Southeast 516 594 35,000  Level FlightAware ADS-B
Wed 11:43:55 PM 19.9740 -85.8460 138° Southeast 515 593 35,000  Level FlightAware ADS-B
Wed 11:44:41 PM 19.8930 -85.7690 138° Southeast 515 593 35,000  Level FlightAware ADS-B
Wed 11:45:28 PM 19.8100 -85.6920 139° Southeast 514 592 35,000  Level FlightAware ADS-B
Wed 11:46:17 PM 19.7200 -85.6070 138° Southeast 512 589 35,000  Level FlightAware ADS-B
Wed 11:47:06 PM 19.6420 -85.5330 138° Southeast 512 589 35,000  Level FlightAware ADS-B
Wed 11:47:58 PM 19.5520 -85.4490 139° Southeast 510 587 35,000  Level FlightAware ADS-B
Wed 11:48:38 PM 19.4710 -85.3740 139° Southeast 510 587 35,000  Level FlightAware ADS-B
Wed 11:49:18 PM 19.4000 -85.3070 138° Southeast 511 588 35,000  Level FlightAware ADS-B
Wed 11:49:58 PM 19.3290 -85.2410 139° Southeast 510 587 35,000  Level FlightAware ADS-B
Wed 11:50:44 PM 19.2490 -85.1660 138° Southeast 510 587 35,000  Level FlightAware ADS-B
Wed 11:51:19 PM 19.1970 -85.1160 138° Southeast 510 587 35,000  Level FlightAware ADS-B
Wed 11:52:07 PM 19.1250 -85.0480 138° Southeast 510 587 35,000  Level FlightAware ADS-B
Wed 11:52:53 PM 19.0570 -84.9830 138° Southeast 510 587 35,000  Level FlightAware ADS-B
Wed 11:53:29 PM 19.0030 -84.9320 138° Southeast 510 587 35,000  Level FlightAware ADS-B
Wed 11:54:06 PM 18.9480 -84.8790 138° Southeast 510 587 35,000  Level FlightAware ADS-B
Wed 11:54:54 PM 18.8760 -84.8110 138° Southeast 510 587 35,000  Level FlightAware ADS-B
Wed 11:55:39 PM 18.8090 -84.7470 138° Southeast 510 587 35,000  Level FlightAware ADS-B
Wed 11:56:15 PM 18.7550 -84.6960 138° Southeast 510 587 35,000  Level FlightAware ADS-B
Wed 11:57:01 PM 18.6870 -84.6310 138° Southeast 510 587 35,000  Level FlightAware ADS-B
Wed 11:57:38 PM 18.6320 -84.5780 138° Southeast 510 587 35,000  Level FlightAware ADS-B
Wed 11:58:26 PM 18.5600 -84.5110 139° Southeast 510 587 35,000  Level FlightAware ADS-B
Wed 11:59:01 PM 18.5080 -84.4610 138° Southeast 510 587 35,000  Level FlightAware ADS-B
Wed 11:59:50 PM 18.4350 -84.3920 138° Southeast 510 587 35,000  Level FlightAware ADS-B
Thu 12:00:28 AM 18.3780 -84.3380 138° Southeast 510 587 35,000 29 Level FlightAware ADS-B
Thu 12:03:00 AM 18.1219 -84.1119 140° Southeast  Level FlightAware Approximate
Thu 12:04:00 AM 18.0207 -84.0228 140° Southeast  Level FlightAware Approximate
Thu 12:05:00 AM 17.9195 -83.9338 140° Southeast  Level FlightAware Approximate
Thu 12:06:00 AM 17.8183 -83.8450 140° Southeast  Level FlightAware Approximate
Thu 12:07:00 AM 17.7170 -83.7562 140° Southeast  Level FlightAware Approximate
Thu 12:08:00 AM 17.6156 -83.6675 140° Southeast  Level FlightAware Approximate
Thu 12:09:00 AM 17.5143 -83.5789 140° Southeast  Level FlightAware Approximate
Thu 12:10:00 AM 17.4128 -83.4905 140° Southeast  Level FlightAware Approximate
Thu 12:11:00 AM 17.3114 -83.4021 140° Southeast  Level FlightAware Approximate
Thu 12:12:00 AM 17.2099 -83.3138 140° Southeast  Level FlightAware Approximate
Thu 12:13:00 AM 17.1084 -83.2256 140° Southeast  Level FlightAware Approximate
Thu 12:14:00 AM 17.0068 -83.1376 140° Southeast  Level FlightAware Approximate
Thu 12:15:00 AM 16.9052 -83.0496 140° Southeast  Level FlightAware Approximate
Thu 12:16:00 AM 16.8036 -82.9617 140° Southeast  Level FlightAware Approximate
Thu 12:17:00 AM 16.7019 -82.8739 140° Southeast  Level FlightAware Approximate
Thu 12:18:00 AM 16.6002 -82.7862 140° Southeast  Level FlightAware Approximate
Thu 12:19:00 AM 16.4984 -82.6986 140° Southeast  Level FlightAware Approximate
Thu 12:20:00 AM 16.3966 -82.6111 140° Southeast  Level FlightAware Approximate
Thu 12:21:00 AM 16.2948 -82.5236 141° Southeast  Level FlightAware Approximate
Thu 12:22:00 AM 16.1929 -82.4363 141° Southeast  Level FlightAware Approximate
Thu 12:23:00 AM 16.0910 -82.3490 141° Southeast  Level FlightAware Approximate
Thu 12:24:00 AM 15.9891 -82.2619 141° Southeast  Level FlightAware Approximate
Thu 12:25:00 AM 15.8872 -82.1741 140° Southeast  Level FlightAware Approximate
Thu 12:26:00 AM 15.7864 -82.0857 140° Southeast  Level FlightAware Approximate
Thu 12:27:00 AM 15.6855 -81.9973 140° Southeast  Level FlightAware Approximate
Thu 12:28:00 AM 15.5846 -81.9091 140° Southeast  Level FlightAware Approximate
Thu 12:29:00 AM 15.4836 -81.8209 140° Southeast  Level FlightAware Approximate
Thu 12:30:00 AM 15.3827 -81.7328 140° Southeast  Level FlightAware Approximate
Thu 12:31:00 AM 15.2816 -81.6448 140° Southeast  Level FlightAware Approximate
Thu 12:32:00 AM 15.1806 -81.5569 140° Southeast  Level FlightAware Approximate
Thu 12:33:00 AM 15.0795 -81.4690 140° Southeast  Level FlightAware Approximate
Thu 12:34:00 AM 14.9783 -81.3814 140° Southeast  Level FlightAware Approximate
Thu 12:35:00 AM 14.8766 -81.2944 140° Southeast  Level FlightAware Approximate
Thu 12:36:00 AM 14.7747 -81.2074 140° Southeast  Level FlightAware Approximate
Thu 12:37:00 AM 14.6728 -81.1204 140° Southeast  Level FlightAware Approximate
Thu 12:38:00 AM 14.5708 -81.0335 140° Southeast  Level FlightAware Approximate
Thu 12:39:00 AM 14.4688 -80.9467 141° Southeast  Level FlightAware Approximate
Thu 12:40:00 AM 14.3668 -80.8599 141° Southeast  Level FlightAware Approximate
Thu 12:41:00 AM 14.2647 -80.7733 141° Southeast  Level FlightAware Approximate
Thu 12:42:00 AM 14.1626 -80.6867 141° Southeast  Level FlightAware Approximate
Thu 12:43:00 AM 14.0605 -80.6002 141° Southeast  Level FlightAware Approximate
Thu 12:44:00 AM 13.9583 -80.5137 141° Southeast  Level FlightAware Approximate
Thu 12:45:00 AM 13.8561 -80.4274 141° Southeast  Level FlightAware Approximate
Thu 12:46:00 AM 13.7539 -80.3411 141° Southeast  Level FlightAware Approximate
Thu 12:47:00 AM 13.6516 -80.2549 141° Southeast  Level FlightAware Approximate
Thu 12:48:00 AM 13.5494 -80.1687 141° Southeast  Level FlightAware Approximate
Thu 12:49:00 AM 13.4472 -80.0826 141° Southeast  Level FlightAware Approximate
Thu 12:50:00 AM 13.3449 -79.9965 141° Southeast  Level FlightAware Approximate
Thu 12:51:00 AM 13.2427 -79.9105 141° Southeast  Level FlightAware Approximate
Thu 12:52:00 AM 13.1404 -79.8245 141° Southeast  Level FlightAware Approximate
Thu 12:53:00 AM 13.0380 -79.7386 141° Southeast  Level FlightAware Approximate
Thu 12:54:00 AM 12.9357 -79.6528 141° Southeast  Level FlightAware Approximate
Thu 12:55:00 AM 12.8333 -79.5671 141° Southeast  Level FlightAware Approximate
Thu 12:56:00 AM 12.7309 -79.4814 141° Southeast  Level FlightAware Approximate
Thu 12:57:00 AM 12.6284 -79.3958 141° Southeast  Level FlightAware Approximate
Thu 12:58:00 AM 12.5260 -79.3103 141° Southeast  Level FlightAware Approximate
Thu 12:59:00 AM 12.4235 -79.2248 141° Southeast  Level FlightAware Approximate
Thu 01:00:00 AM 12.3210 -79.1394 141° Southeast  Level FlightAware Approximate
Thu 01:01:00 AM 12.2184 -79.0541 141° Southeast  Level FlightAware Approximate
Thu 01:02:00 AM 12.1159 -78.9687 141° Southeast  Level FlightAware Approximate
Thu 01:03:00 AM 12.0136 -78.8831 141° Southeast  Level FlightAware Approximate
Thu 01:04:00 AM 11.9113 -78.7976 141° Southeast  Level FlightAware Approximate
Thu 01:05:00 AM 11.8090 -78.7121 141° Southeast  Level FlightAware Approximate
Thu 01:06:00 AM 11.7066 -78.6267 141° Southeast  Level FlightAware Approximate
Thu 01:07:00 AM 11.6042 -78.5413 141° Southeast  Level FlightAware Approximate
Thu 01:07:52 AM 11.4700 -77.8120 141° Southeast 467 537 37,000  Level FlightAware ADS-B
Thu 01:08:00 AM 11.5018 -78.4560 141° Southeast  Level FlightAware Approximate
Thu 01:08:35 AM 11.3870 -77.7480 143° Southeast 468 539 37,000  Level FlightAware ADS-B
Thu 01:09:15 AM 11.3170 -77.6940 143° Southeast 467 537 37,000  Level FlightAware ADS-B
Thu 01:09:57 AM 11.2570 -77.6470 142° Southeast 467 537 37,000  Level FlightAware ADS-B
Thu 01:10:40 AM 11.1950 -77.5970 142° Southeast 467 537 37,000  Level FlightAware ADS-B
Thu 01:11:39 AM 11.1100 -77.5290 142° Southeast 467 537 37,000  Level FlightAware ADS-B
Thu 01:12:15 AM 11.0040 -77.4520 145° Southeast 37,000  Level FlightAware ADS-B
Thu 01:13:00 AM 10.9240 -77.3850 141° Southeast 477 549 37,000  Level FlightAware ADS-B
Thu 01:13:41 AM 10.8580 -77.3230 137° Southeast 471 542 37,000  Level FlightAware ADS-B
Thu 01:14:22 AM 10.7940 -77.2630 137° Southeast 478 550 37,000  Level FlightAware ADS-B
Thu 01:15:46 AM 10.6750 -77.1510 137° Southeast 479 551 37,000  Level FlightAware ADS-B
Thu 01:16:22 AM 10.6250 -77.1040 137° Southeast 479 551 37,000  Level FlightAware ADS-B
Thu 01:17:00 AM 10.5340 -77.0210 138° Southeast 479 551 37,000  Level FlightAware ADS-B
Thu 01:17:50 AM 10.4650 -76.9560 137° Southeast 479 551 37,000  Level FlightAware ADS-B
Thu 01:18:05 AM 10.4400 -76.9080 118° Southeast 475 547 37,000  Level FlightAware ADS-B
Thu 01:19:10 AM 10.3640 -76.7840 122° Southeast 478 550 37,000  Level FlightAware ADS-B
Thu 01:19:51 AM 10.3150 -76.7060 123° Southeast 477 549 37,000  Level FlightAware ADS-B
Thu 01:20:31 AM 10.2680 -76.6310 122° Southeast 477 549 37,000  Level FlightAware ADS-B
Thu 01:21:12 AM 10.2210 -76.5560 122° Southeast 478 550 37,000  Level FlightAware ADS-B
Thu 01:21:56 AM 10.1710 -76.4760 122° Southeast 478 550 37,000  Level FlightAware ADS-B
Thu 01:22:36 AM 10.1210 -76.3960 122° Southeast 479 551 37,000  Level FlightAware ADS-B
Thu 01:23:26 AM 10.0600 -76.2980 122° Southeast 475 547 37,000  Level FlightAware ADS-B
Thu 01:24:06 AM 10.0120 -76.2210 122° Southeast 474 545 37,000  Level FlightAware ADS-B
Thu 01:25:02 AM 9.9480 -76.1170 122° Southeast 473 544 37,000  Level FlightAware ADS-B
Thu 01:25:43 AM 9.9100 -76.0550 122° Southeast 476 548 37,000  Level FlightAware ADS-B
Thu 01:26:27 AM 9.8410 -75.9640 128° Southeast 467 537 37,000  Level FlightAware ADS-B
Thu 01:27:07 AM 9.7860 -75.8980 130° Southeast 472 543 37,000  Level FlightAware ADS-B
Thu 01:27:49 AM 9.7350 -75.8350 129° Southeast 472 543 37,000  Level FlightAware ADS-B
Thu 01:28:42 AM 9.6510 -75.7450 133° Southeast 466 536 37,000  Level FlightAware ADS-B
Thu 01:29:22 AM 9.6030 -75.6880 130° Southeast 466 536 37,000  Level FlightAware ADS-B
Thu 01:30:14 AM 9.5410 -75.6150 131° Southeast 466 536 37,000  Level FlightAware ADS-B
Thu 01:30:46 AM 9.5020 -75.5710 132° Southeast 466 536 37,000  Level FlightAware ADS-B
Thu 01:31:34 AM 9.4450 -75.5030 130° Southeast 466 536 37,000  Level FlightAware ADS-B
Thu 01:32:10 AM 9.4010 -75.4530 132° Southeast 466 536 37,000  Level FlightAware ADS-B
Thu 01:32:59 AM 9.3420 -75.3840 131° Southeast 466 536 37,000  Level FlightAware ADS-B
Thu 01:33:35 AM 9.2990 -75.3340 131° Southeast 466 536 37,000  Level FlightAware ADS-B
Thu 01:34:23 AM 9.2410 -75.2660 131° Southeast 466 536 37,000  Level FlightAware ADS-B
Thu 01:35:01 AM 9.1960 -75.2130 131° Southeast 466 536 37,000  Level FlightAware ADS-B
Thu 01:35:47 AM 9.1400 -75.1490 132° Southeast 466 536 37,000  Level FlightAware ADS-B
Thu 01:36:22 AM 9.0980 -75.1000 131° Southeast 466 536 37,000  Level FlightAware ADS-B
Thu 01:37:10 AM 9.0410 -75.0320 130° Southeast 466 536 37,000  Level FlightAware ADS-B
Thu 01:37:46 AM 8.9970 -74.9820 132° Southeast 466 536 37,000  Level FlightAware ADS-B
Thu 01:38:36 AM 8.9370 -74.9120 131° Southeast 466 536 37,000 Level FlightAware ADS-B
Thu 01:41:00 AM 8.6945 -74.7051 140° Southeast  Level Estimated
Thu 01:42:00 AM 8.5934 -74.6190 140° Southeast  Level Estimated
Thu 01:43:00 AM 8.4923 -74.5329 140° Southeast  Level Estimated
Thu 01:44:00 AM 8.3911 -74.4469 140° Southeast  Level Estimated
Thu 01:45:00 AM 8.2900 -74.3609 140° Southeast  Level Estimated
Thu 01:46:00 AM 8.1888 -74.2750 140° Southeast  Level Estimated
Thu 01:47:00 AM 8.0876 -74.1891 140° Southeast  Level Estimated
Thu 01:48:00 AM 7.9864 -74.1032 140° Southeast  Level Estimated
Thu 01:49:00 AM 7.8852 -74.0174 140° Southeast  Level Estimated
Thu 01:50:00 AM 7.7840 -73.9316 140° Southeast  Level Estimated
Thu 01:51:00 AM 7.6827 -73.8459 140° Southeast  Level Estimated
Thu 01:52:00 AM 7.5814 -73.7602 140° Southeast  Level Estimated
Thu 01:53:00 AM 7.4801 -73.6746 140° Southeast  Level Estimated
Thu 01:54:00 AM 7.3788 -73.5890 140° Southeast  Level Estimated
Thu 01:55:00 AM 7.2775 -73.5034 140° Southeast  Level Estimated
Thu 01:56:00 AM 7.1762 -73.4179 140° Southeast  Level Estimated
Thu 01:57:00 AM 7.0748 -73.3324 140° Southeast  Level Estimated
Thu 01:58:00 AM 6.9735 -73.2469 140° Southeast  Level Estimated
Thu 01:59:00 AM 6.8721 -73.1615 140° Southeast  Level Estimated
Thu 02:00:00 AM 6.7707 -73.0761 140° Southeast  Level Estimated
Thu 02:01:00 AM 6.6692 -72.9908 140° Southeast  Level Estimated
Thu 02:02:00 AM 6.5678 -72.9055 140° Southeast  Level Estimated
Thu 02:03:00 AM 6.4664 -72.8202 140° Southeast  Level Estimated
Thu 02:04:00 AM 6.3649 -72.7350 140° Southeast  Level Estimated
Thu 02:05:00 AM 6.2634 -72.6498 140° Southeast  Level Estimated
Thu 02:06:00 AM 6.1620 -72.5646 140° Southeast  Level Estimated
Thu 02:07:00 AM 6.0605 -72.4794 140° Southeast  Level Estimated
Thu 02:08:00 AM 5.9589 -72.3943 140° Southeast  Level Estimated
Thu 02:09:00 AM 5.8574 -72.3093 140° Southeast  Level Estimated
Thu 02:10:00 AM 5.7559 -72.2242 140° Southeast  Level Estimated
Thu 02:11:00 AM 5.6543 -72.1392 140° Southeast  Level Estimated
Thu 02:12:00 AM 5.5528 -72.0542 140° Southeast  Level Estimated
Thu 02:13:00 AM 5.4512 -71.9693 140° Southeast  Level Estimated
Thu 02:14:00 AM 5.3496 -71.8843 140° Southeast  Level Estimated
Thu 02:15:00 AM 5.2480 -71.7994 140° Southeast  Level Estimated
Thu 02:16:00 AM 5.1464 -71.7145 140° Southeast  Level Estimated
Thu 02:17:00 AM 5.0448 -71.6297 140° Southeast  Level Estimated
Thu 02:18:00 AM 4.9431 -71.5449 140° Southeast  Level Estimated
Thu 02:19:00 AM 4.8415 -71.4601 140° Southeast  Level Estimated
Thu 02:20:00 AM 4.7398 -71.3753 140° Southeast  Level Estimated
Thu 02:21:00 AM 4.6382 -71.2906 140° Southeast  Level Estimated
Thu 02:22:00 AM 4.5365 -71.2059 140° Southeast  Level Estimated
Thu 02:23:00 AM 4.4348 -71.1212 140° Southeast  Level Estimated
Thu 02:24:00 AM 4.3331 -71.0365 140° Southeast  Level Estimated
Thu 02:25:00 AM 4.2314 -70.9519 140° Southeast  Level Estimated
Thu 02:26:00 AM 4.1297 -70.8672 140° Southeast  Level Estimated
Thu 02:27:00 AM 4.0280 -70.7826 140° Southeast  Level Estimated
Thu 02:28:00 AM 3.9262 -70.6981 140° Southeast  Level Estimated
Thu 02:29:00 AM 3.8245 -70.6135 140° Southeast  Level Estimated
Thu 02:30:00 AM 3.7228 -70.5290 140° Southeast  Level Estimated
Thu 02:31:00 AM 3.6210 -70.4444 140° Southeast  Level Estimated
Thu 02:32:00 AM 3.5192 -70.3599 140° Southeast  Level Estimated
Thu 02:33:00 AM 3.4175 -70.2755 140° Southeast  Level Estimated
Thu 02:34:00 AM 3.3157 -70.1910 140° Southeast  Level Estimated
Thu 02:35:00 AM 3.2139 -70.1065 140° Southeast  Level Estimated
Thu 02:36:00 AM 3.1121 -70.0221 140° Southeast  Level Estimated
Thu 02:37:00 AM 3.0103 -69.9377 140° Southeast  Level Estimated
Thu 02:38:00 AM 2.9085 -69.8533 140° Southeast  Level Estimated
Thu 02:39:00 AM 2.8067 -69.7689 140° Southeast  Level Estimated
Thu 02:40:00 AM 2.7049 -69.6845 140° Southeast  Level Estimated
Thu 02:41:00 AM 2.6030 -69.6002 140° Southeast  Level Estimated
Thu 02:42:00 AM 2.5012 -69.5158 140° Southeast  Level Estimated
Thu 02:43:00 AM 2.3994 -69.4315 140° Southeast  Level Estimated
Thu 02:44:00 AM 2.2975 -69.3472 140° Southeast  Level Estimated
Thu 02:45:00 AM 2.1957 -69.2629 140° Southeast  Level Estimated
Thu 02:46:00 AM 2.0938 -69.1786 140° Southeast  Level Estimated
Thu 02:47:00 AM 1.9920 -69.0943 140° Southeast  Level Estimated
Thu 02:48:00 AM 1.8901 -69.0100 140° Southeast  Level Estimated
Thu 02:49:00 AM 1.7883 -68.9258 140° Southeast  Level Estimated
Thu 02:50:00 AM 1.6864 -68.8415 140° Southeast  Level Estimated
Thu 02:51:00 AM 1.5845 -68.7573 140° Southeast  Level Estimated
Thu 02:52:00 AM 1.4827 -68.6731 140° Southeast  Level Estimated
Thu 02:53:00 AM 1.3808 -68.5888 140° Southeast  Level Estimated
Thu 02:54:00 AM 1.2789 -68.5046 140° Southeast  Level Estimated
Thu 02:55:00 AM 1.1770 -68.4204 140° Southeast  Level Estimated
Thu 02:56:00 AM 1.0751 -68.3362 140° Southeast  Level Estimated
Thu 02:57:00 AM 0.9732 -68.2520 140° Southeast  Level Estimated
Thu 02:58:00 AM 0.8713 -68.1678 140° Southeast  Level Estimated
Thu 02:59:00 AM 0.7695 -68.0836 140° Southeast  Level Estimated
Thu 03:00:00 AM 0.6676 -67.9994 140° Southeast  Level Estimated
Thu 03:01:00 AM 0.5657 -67.9152 140° Southeast  Level Estimated
Thu 03:02:00 AM 0.4638 -67.8310 140° Southeast  Level Estimated
Thu 03:03:00 AM 0.3619 -67.7469 140° Southeast  Level Estimated
Thu 03:04:00 AM 0.2600 -67.6627 140° Southeast  Level Estimated
Thu 03:05:00 AM 0.1581 -67.5785 140° Southeast  Level Estimated
Thu 03:06:00 AM 0.0562 -67.4943 140° Southeast  Level Estimated
Thu 03:07:00 AM -0.0457 -67.4102 140° Southeast  Level Estimated
Thu 03:08:00 AM -0.1476 -67.3260 140° Southeast  Level Estimated
Thu 03:09:00 AM -0.2495 -67.2418 140° Southeast  Level Estimated
Thu 03:10:00 AM -0.3514 -67.1576 140° Southeast  Level Estimated
Thu 03:11:00 AM -0.4533 -67.0734 140° Southeast  Level Estimated
Thu 03:12:00 AM -0.5552 -66.9893 140° Southeast  Level Estimated
Thu 03:13:00 AM -0.6571 -66.9051 140° Southeast  Level Estimated
Thu 03:14:00 AM -0.7590 -66.8209 140° Southeast  Level Estimated
Thu 03:15:00 AM -0.8609 -66.7367 140° Southeast  Level Estimated
Thu 03:16:00 AM -0.9628 -66.6525 140° Southeast  Level Estimated
Thu 03:17:00 AM -1.0647 -66.5683 140° Southeast  Level Estimated
Thu 03:18:00 AM -1.1666 -66.4841 140° Southeast  Level Estimated
Thu 03:19:00 AM -1.2685 -66.3999 140° Southeast  Level Estimated
Thu 03:20:00 AM -1.3704 -66.3157 140° Southeast  Level Estimated
Thu 03:21:00 AM -1.4722 -66.2314 140° Southeast  Level Estimated
Thu 03:22:00 AM -1.5741 -66.1472 140° Southeast  Level Estimated
Thu 03:23:00 AM -1.6760 -66.0630 140° Southeast  Level Estimated
Thu 03:24:00 AM -1.7778 -65.9787 140° Southeast  Level Estimated
Thu 03:25:00 AM -1.8797 -65.8944 140° Southeast  Level Estimated
Thu 03:26:00 AM -1.9816 -65.8102 140° Southeast  Level Estimated
Thu 03:27:00 AM -2.0834 -65.7259 140° Southeast  Level Estimated
Thu 03:28:00 AM -2.1853 -65.6416 140° Southeast  Level Estimated
Thu 03:29:00 AM -2.2871 -65.5573 140° Southeast  Level Estimated
Thu 03:30:00 AM -2.3890 -65.4730 140° Southeast  Level Estimated
Thu 03:31:00 AM -2.4908 -65.3887 140° Southeast  Level Estimated
Thu 03:32:00 AM -2.5926 -65.3043 140° Southeast  Level Estimated
Thu 03:33:00 AM -2.6945 -65.2200 140° Southeast  Level Estimated
Thu 03:34:00 AM -2.7963 -65.1356 140° Southeast  Level Estimated
Thu 03:35:00 AM -2.8981 -65.0512 140° Southeast  Level Estimated
Thu 03:36:00 AM -2.9999 -64.9668 140° Southeast  Level Estimated
Thu 03:37:00 AM -3.1017 -64.8824 140° Southeast  Level Estimated
Thu 03:38:00 AM -3.2035 -64.7980 140° Southeast  Level Estimated
Thu 03:39:00 AM -3.3053 -64.7135 140° Southeast  Level Estimated
Thu 03:40:00 AM -3.4071 -64.6291 140° Southeast  Level Estimated
Thu 03:41:00 AM -3.5088 -64.5446 140° Southeast  Level Estimated
Thu 03:42:00 AM -3.6106 -64.4601 140° Southeast  Level Estimated
Thu 03:43:00 AM -3.7123 -64.3756 140° Southeast  Level Estimated
Thu 03:44:00 AM -3.8141 -64.2910 140° Southeast  Level Estimated
Thu 03:45:00 AM -3.9158 -64.2065 140° Southeast  Level Estimated
Thu 03:46:00 AM -4.0176 -64.1219 140° Southeast  Level Estimated
Thu 03:47:00 AM -4.1193 -64.0373 140° Southeast  Level Estimated
Thu 03:48:00 AM -4.2210 -63.9527 140° Southeast  Level Estimated
Thu 03:49:00 AM -4.3227 -63.8680 140° Southeast  Level Estimated
Thu 03:50:00 AM -4.4244 -63.7834 140° Southeast  Level Estimated
Thu 03:51:00 AM -4.5261 -63.6987 140° Southeast  Level Estimated
Thu 03:52:00 AM -4.6278 -63.6140 140° Southeast  Level Estimated
Thu 03:53:00 AM -4.7295 -63.5292 140° Southeast  Level Estimated
Thu 03:54:00 AM -4.8311 -63.4445 140° Southeast  Level Estimated
Thu 03:55:00 AM -4.9328 -63.3597 140° Southeast  Level Estimated
Thu 03:56:00 AM -5.0344 -63.2749 140° Southeast  Level Estimated
Thu 03:57:00 AM -5.1360 -63.1900 140° Southeast  Level Estimated
Thu 03:58:00 AM -5.2376 -63.1051 140° Southeast  Level Estimated
Thu 03:59:00 AM -5.3392 -63.0202 140° Southeast  Level Estimated
Thu 04:00:00 AM -5.4408 -62.9353 140° Southeast  Level Estimated
Thu 04:01:00 AM -5.5424 -62.8504 140° Southeast  Level Estimated
Thu 04:02:00 AM -5.6440 -62.7654 140° Southeast  Level Estimated
Thu 04:03:00 AM -5.7455 -62.6804 140° Southeast  Level Estimated
Thu 04:04:00 AM -5.8471 -62.5953 140° Southeast  Level Estimated
Thu 04:05:00 AM -5.9486 -62.5103 140° Southeast  Level Estimated
Thu 04:06:00 AM -6.0501 -62.4252 140° Southeast  Level Estimated
Thu 04:07:00 AM -6.1516 -62.3400 140° Southeast  Level Estimated
Thu 04:08:00 AM -6.2531 -62.2549 140° Southeast  Level Estimated
Thu 04:09:00 AM -6.3545 -62.1697 140° Southeast  Level Estimated
Thu 04:10:00 AM -6.4560 -62.0844 140° Southeast  Level Estimated
Thu 04:11:00 AM -6.5575 -61.9992 140° Southeast  Level Estimated
Thu 04:12:00 AM -6.6589 -61.9139 140° Southeast  Level Estimated
Thu 04:13:00 AM -6.7603 -61.8285 140° Southeast  Level Estimated
Thu 04:14:00 AM -6.8617 -61.7431 140° Southeast  Level Estimated
Thu 04:15:00 AM -6.9631 -61.6577 140° Southeast  Level Estimated
Thu 04:16:00 AM -7.0645 -61.5723 140° Southeast  Level Estimated
Thu 04:17:00 AM -7.1658 -61.4868 140° Southeast  Level Estimated
Thu 04:18:00 AM -7.2672 -61.4013 140° Southeast  Level Estimated
Thu 04:19:00 AM -7.3685 -61.3157 140° Southeast  Level Estimated
Thu 04:20:00 AM -7.4698 -61.2301 140° Southeast  Level Estimated
Thu 04:21:00 AM -7.5711 -61.1445 140° Southeast  Level Estimated
Thu 04:22:00 AM -7.6724 -61.0588 140° Southeast  Level Estimated
Thu 04:23:00 AM -7.7736 -60.9731 140° Southeast  Level Estimated
Thu 04:24:00 AM -7.8749 -60.8873 140° Southeast  Level Estimated
Thu 04:25:00 AM -7.9761 -60.8015 140° Southeast  Level Estimated
Thu 04:26:00 AM -8.0773 -60.7156 140° Southeast  Level Estimated
Thu 04:27:00 AM -8.1785 -60.6298 140° Southeast  Level Estimated
Thu 04:28:00 AM -8.2796 -60.5438 140° Southeast  Level Estimated
Thu 04:29:00 AM -8.3808 -60.4578 140° Southeast  Level Estimated
Thu 04:30:00 AM -8.4819 -60.3718 140° Southeast  Level Estimated
Thu 04:31:00 AM -8.5830 -60.2858 140° Southeast  Level Estimated
Thu 04:32:00 AM -8.6841 -60.1996 140° Southeast  Level Estimated
Thu 04:33:00 AM -8.7852 -60.1135 140° Southeast  Level Estimated
Thu 04:34:00 AM -8.8863 -60.0273 140° Southeast  Level Estimated
Thu 04:35:00 AM -8.9873 -59.9410 140° Southeast  Level Estimated
Thu 04:36:00 AM -9.0883 -59.8547 140° Southeast  Level Estimated
Thu 04:37:00 AM -9.1893 -59.7683 140° Southeast  Level Estimated
Thu 04:38:00 AM -9.2903 -59.6819 140° Southeast  Level Estimated
Thu 04:39:00 AM -9.3912 -59.5955 140° Southeast  Level Estimated
Thu 04:40:00 AM -9.4922 -59.5090 140° Southeast  Level Estimated
Thu 04:41:00 AM -9.5931 -59.4225 140° Southeast  Level Estimated
Thu 04:42:00 AM -9.6940 -59.3358 140° Southeast  Level Estimated
Thu 04:43:00 AM -9.7949 -59.2492 140° Southeast  Level Estimated
Thu 04:44:00 AM -9.8957 -59.1625 140° Southeast  Level Estimated
Thu 04:45:00 AM -9.9965 -59.0757 140° Southeast  Level Estimated
Thu 04:46:00 AM -10.0973 -58.9889 140° Southeast  Level Estimated
Thu 04:47:00 AM -10.1981 -58.9020 140° Southeast  Level Estimated
Thu 04:48:00 AM -10.2989 -58.8151 140° Southeast  Level Estimated
Thu 04:49:00 AM -10.3996 -58.7281 140° Southeast  Level Estimated
Thu 04:50:00 AM -10.5003 -58.6411 140° Southeast  Level Estimated
Thu 04:51:00 AM -10.6010 -58.5540 140° Southeast  Level Estimated
Thu 04:52:00 AM -10.7016 -58.4668 140° Southeast  Level Estimated
Thu 04:53:00 AM -10.8023 -58.3796 140° Southeast  Level Estimated
Thu 04:54:00 AM -10.9029 -58.2923 140° Southeast  Level Estimated
Thu 04:55:00 AM -11.0035 -58.2050 140° Southeast  Level Estimated
Thu 04:56:00 AM -11.1040 -58.1176 140° Southeast  Level Estimated
Thu 04:57:00 AM -11.2046 -58.0302 140° Southeast  Level Estimated
Thu 04:58:00 AM -11.3051 -57.9427 140° Southeast  Level Estimated
Thu 04:59:00 AM -11.4056 -57.8551 139° Southeast  Level Estimated
Thu 05:00:00 AM -11.5061 -57.7675 139° Southeast  Level Estimated
Thu 05:01:00 AM -11.6065 -57.6798 139° Southeast  Level Estimated
Thu 05:02:00 AM -11.7069 -57.5920 139° Southeast  Level Estimated
Thu 05:03:00 AM -11.8073 -57.5042 139° Southeast  Level Estimated
Thu 05:04:00 AM -11.9076 -57.4163 139° Southeast  Level Estimated
Thu 05:05:00 AM -12.0080 -57.3284 139° Southeast  Level Estimated
Thu 05:06:00 AM -12.1083 -57.2403 139° Southeast  Level Estimated
Thu 05:07:00 AM -12.2085 -57.1522 139° Southeast  Level Estimated
Thu 05:08:00 AM -12.3088 -57.0641 139° Southeast  Level Estimated
Thu 05:09:00 AM -12.4090 -56.9759 139° Southeast  Level Estimated
Thu 05:10:00 AM -12.5092 -56.8876 139° Southeast  Level Estimated
Thu 05:11:00 AM -12.6093 -56.7993 139° Southeast  Level Estimated
Thu 05:12:00 AM -12.7095 -56.7108 139° Southeast  Level Estimated
Thu 05:13:00 AM -12.8096 -56.6223 139° Southeast  Level Estimated
Thu 05:14:00 AM -12.9096 -56.5338 139° Southeast  Level Estimated
Thu 05:15:00 AM -13.0097 -56.4451 139° Southeast  Level Estimated
Thu 05:16:00 AM -13.1097 -56.3564 139° Southeast  Level Estimated
Thu 05:17:00 AM -13.2097 -56.2677 139° Southeast  Level Estimated
Thu 05:18:00 AM -13.3096 -56.1788 139° Southeast  Level Estimated
Thu 05:19:00 AM -13.4095 -56.0899 139° Southeast  Level Estimated
Thu 05:20:00 AM -13.5094 -56.0009 139° Southeast  Level Estimated
Thu 05:21:00 AM -13.6093 -55.9118 139° Southeast  Level Estimated
Thu 05:22:00 AM -13.7091 -55.8227 139° Southeast  Level Estimated
Thu 05:23:00 AM -13.8089 -55.7335 139° Southeast  Level Estimated
Thu 05:24:00 AM -13.9087 -55.6442 139° Southeast  Level Estimated
Thu 05:25:00 AM -14.0084 -55.5548 139° Southeast  Level Estimated
Thu 05:26:00 AM -14.1081 -55.4653 139° Southeast  Level Estimated
Thu 05:27:00 AM -14.2078 -55.3758 139° Southeast  Level Estimated
Thu 05:28:00 AM -14.3074 -55.2862 139° Southeast  Level Estimated
Thu 05:29:00 AM -14.4070 -55.1965 139° Southeast  Level Estimated
Thu 05:30:00 AM -14.5065 -55.1067 139° Southeast  Level Estimated
Thu 05:31:00 AM -14.6061 -55.0169 139° Southeast  Level Estimated
Thu 05:32:00 AM -14.7056 -54.9269 139° Southeast  Level Estimated
Thu 05:33:00 AM -14.8050 -54.8369 139° Southeast  Level Estimated
Thu 05:34:00 AM -14.9044 -54.7468 139° Southeast  Level Estimated
Thu 05:35:00 AM -15.0038 -54.6567 139° Southeast  Level Estimated
Thu 05:36:00 AM -15.1032 -54.5664 139° Southeast  Level Estimated
Thu 05:37:00 AM -15.2025 -54.4761 139° Southeast  Level Estimated
Thu 05:38:00 AM -15.3018 -54.3856 139° Southeast  Level Estimated
Thu 05:39:00 AM -15.4010 -54.2951 139° Southeast  Level Estimated
Thu 05:40:00 AM -15.5002 -54.2045 139° Southeast  Level Estimated
Thu 05:41:00 AM -15.5994 -54.1138 139° Southeast  Level Estimated
Thu 05:42:00 AM -15.6985 -54.0230 139° Southeast  Level Estimated
Thu 05:43:00 AM -15.7976 -53.9322 139° Southeast  Level Estimated
Thu 05:44:00 AM -15.8967 -53.8412 139° Southeast  Level Estimated
Thu 05:45:00 AM -15.9957 -53.7501 139° Southeast  Level Estimated
Thu 05:46:00 AM -16.0947 -53.6590 139° Southeast  Level Estimated
Thu 05:47:00 AM -16.1936 -53.5678 138° Southeast  Level Estimated
Thu 05:48:00 AM -16.2925 -53.4765 138° Southeast  Level Estimated
Thu 05:49:00 AM -16.3914 -53.3850 138° Southeast  Level Estimated
Thu 05:50:00 AM -16.4902 -53.2935 138° Southeast  Level Estimated
Thu 05:51:00 AM -16.5890 -53.2019 138° Southeast  Level Estimated
Thu 05:52:00 AM -16.6878 -53.1102 138° Southeast  Level Estimated
Thu 05:53:00 AM -16.7865 -53.0185 138° Southeast  Level Estimated
Thu 05:54:00 AM -16.8851 -52.9266 138° Southeast  Level Estimated
Thu 05:55:00 AM -16.9837 -52.8346 138° Southeast  Level Estimated
Thu 05:56:00 AM -17.0823 -52.7425 138° Southeast  Level Estimated
Thu 05:57:00 AM -17.1809 -52.6503 138° Southeast  Level Estimated
Thu 05:58:00 AM -17.2794 -52.5581 138° Southeast  Level Estimated
Thu 05:59:00 AM -17.3778 -52.4657 138° Southeast  Level Estimated
Thu 06:00:00 AM -17.4762 -52.3732 138° Southeast  Level Estimated
Thu 06:01:00 AM -17.5746 -52.2807 138° Southeast  Level Estimated
Thu 06:02:00 AM -17.6729 -52.1880 138° Southeast  Level Estimated
Thu 06:03:00 AM -17.7712 -52.0952 138° Southeast  Level Estimated
Thu 06:04:00 AM -17.8694 -52.0024 138° Southeast  Level Estimated
Thu 06:05:00 AM -17.9676 -51.9094 138° Southeast  Level Estimated
Thu 06:06:00 AM -18.0658 -51.8163 138° Southeast  Level Estimated
Thu 06:07:00 AM -18.1639 -51.7231 138° Southeast  Level Estimated
Thu 06:08:00 AM -18.2620 -51.6298 138° Southeast  Level Estimated
Thu 06:08:43 AM -18.8420 -50.8420 138° Southeast 514 592 39,000  Level FlightAware ADS-B
Thu 06:09:00 AM -18.3600 -51.5364 138° Southeast  Level Estimated
Thu 06:09:20 AM -18.8940 -50.7850 134° Southeast 514 592 39,000  Level FlightAware ADS-B
Thu 06:10:34 AM -19.0340 -50.6330 134° Southeast 511 588 39,000  Level FlightAware ADS-B
Thu 06:11:18 AM -19.1060 -50.5550 134° Southeast 509 586 39,000  Level FlightAware ADS-B
Thu 06:11:53 AM -19.1610 -50.4950 134° Southeast 509 586 39,000  Level FlightAware ADS-B
Thu 06:12:37 AM -19.2350 -50.4140 134° Southeast 509 586 39,000  Level FlightAware ADS-B
Thu 06:13:21 AM -19.3060 -50.3360 134° Southeast 509 586 39,000  Level FlightAware ADS-B
Thu 06:14:01 AM -19.3700 -50.2650 134° Southeast 509 586 39,000  Level FlightAware ADS-B
Thu 06:14:47 AM -19.4480 -50.1800 134° Southeast 509 586 39,000  Level FlightAware ADS-B
Thu 06:15:27 AM -19.5130 -50.1080 134° Southeast 510 587 39,000  Level FlightAware ADS-B
Thu 06:16:11 AM -19.5860 -50.0280 134° Southeast 512 589 39,000  Level FlightAware ADS-B
Thu 06:16:50 AM -19.6500 -49.9570 134° Southeast 512 589 39,000  Level FlightAware ADS-B
Thu 06:17:31 AM -19.7180 -49.8840 135° Southeast 512 589 39,000  Level FlightAware ADS-B
Thu 06:18:10 AM -19.7790 -49.8170 134° Southeast 513 590 39,000  Level FlightAware ADS-B
Thu 06:18:59 AM -19.8640 -49.7240 134° Southeast 514 592 39,000  Level FlightAware ADS-B
Thu 06:19:41 AM -19.9330 -49.6490 134° Southeast 514 592 39,000  Level FlightAware ADS-B
Thu 06:20:59 AM -20.0430 -49.5280 134° Southeast 514 592 39,000  Level FlightAware ADS-B
Thu 06:21:38 AM -20.1240 -49.4390 134° Southeast 514 592 39,000  Level FlightAware ADS-B
Thu 06:22:22 AM -20.2000 -49.3550 134° Southeast 515 593 39,000  Level FlightAware ADS-B
Thu 06:23:05 AM -20.2710 -49.2770 134° Southeast 514 592 39,000  Level FlightAware ADS-B
Thu 06:23:45 AM -20.3380 -49.2020 134° Southeast 515 593 39,000  Level FlightAware ADS-B
Thu 06:24:31 AM -20.4130 -49.1190 134° Southeast 515 593 39,000  Level FlightAware ADS-B
Thu 06:25:13 AM -20.4810 -49.0450 134° Southeast 514 592 39,000  Level FlightAware ADS-B
Thu 06:25:50 AM -20.5220 -48.9980 133° Southeast 515 593 39,000  Level FlightAware ADS-B
Thu 06:26:37 AM -20.6220 -48.8870 134° Southeast 514 592 39,000  Level FlightAware ADS-B
Thu 06:27:13 AM -20.6820 -48.8210 134° Southeast 515 593 39,000  Level FlightAware ADS-B
Thu 06:27:57 AM -20.7550 -48.7400 134° Southeast 514 592 39,000  Level FlightAware ADS-B
Thu 06:28:39 AM -20.8230 -48.6630 133° Southeast 514 592 39,000  Level FlightAware ADS-B
Thu 06:29:25 AM -20.8980 -48.5790 134° Southeast 514 592 39,000  Level FlightAware ADS-B
Thu 06:30:07 AM -20.9670 -48.5020 134° Southeast 514 592 39,000  Level FlightAware ADS-B
Thu 06:30:47 AM -21.0320 -48.4280 133° Southeast 514 592 39,000  Level FlightAware ADS-B
Thu 06:31:29 AM -21.0980 -48.3540 134° Southeast 514 592 39,000  Level FlightAware ADS-B
Thu 06:32:13 AM -21.1740 -48.2680 133° Southeast 512 589 39,000  Level FlightAware ADS-B
Thu 06:32:52 AM -21.2370 -48.1970 134° Southeast 512 589 39,000  Level FlightAware ADS-B
Thu 06:33:34 AM -21.3050 -48.1200 133° Southeast 512 589 39,000  Level FlightAware ADS-B
Thu 06:34:17 AM -21.3760 -48.0390 133° Southeast 511 588 39,000  Level FlightAware ADS-B
Thu 06:34:53 AM -21.4340 -47.9720 133° Southeast 510 587 39,000 -140 Level FlightAware ADS-B
Thu 06:35:43 AM -21.5170 -47.8820 135° Southeast 497 572 38,800 -876 Descending FlightAware ADS-B
Thu 06:36:22 AM -21.5830 -47.8230 140° Southeast 476 548 37,700 -1,737 Descending FlightAware ADS-B
Thu 06:36:59 AM -21.6490 -47.7730 145° Southeast 459 528 36,600 -1,931 Descending FlightAware ADS-B
Thu 06:37:49 AM -21.7370 -47.7100 146° Southeast 457 526 34,900 -1,800 Descending FlightAware ADS-B
Thu 06:38:29 AM -21.8060 -47.6600 146° Southeast 445 512 33,900 -1,643 Descending FlightAware ADS-B
Thu 06:39:13 AM -21.8810 -47.6060 146° Southeast 438 504 32,600 -1,786 Descending FlightAware ADS-B
Thu 06:39:53 AM -21.9470 -47.5580 146° Southeast 433 498 31,400 -1,500 Descending FlightAware ADS-B
Thu 06:40:33 AM -21.9970 -47.5210 146° Southeast 426 490 30,600 -1,643 Descending FlightAware ADS-B
Thu 06:41:17 AM -22.0850 -47.4580 146° Southeast 418 481 29,100 -1,857 Descending FlightAware ADS-B
Thu 06:41:57 AM -22.1470 -47.4120 146° Southeast 410 472 28,000 -1,537 Descending FlightAware ADS-B
Thu 06:42:39 AM -22.2130 -47.3640 146° Southeast 401 461 27,000 -1,535 Descending FlightAware ADS-B
Thu 06:43:23 AM -22.2800 -47.3150 146° Southeast 395 455 25,800 -1,429 Descending FlightAware ADS-B
Thu 06:44:03 AM -22.3420 -47.2700 146° Southeast 398 458 25,000 -659 Descending FlightAware ADS-B
Thu 06:44:45 AM -22.4050 -47.2230 145° Southeast 394 453 24,900 -786 Descending FlightAware ADS-B
Thu 06:45:27 AM -22.4670 -47.1780 146° Southeast 388 447 23,900 -1,357 Descending FlightAware ADS-B
Thu 06:46:09 AM -22.5290 -47.1330 146° Southeast 380 437 23,000 -1,465 Descending FlightAware ADS-B
Thu 06:46:53 AM -22.5940 -47.0910 149° Southeast 367 422 21,800 -1,465 Descending FlightAware ADS-B
Thu 06:47:35 AM -22.6610 -47.0620 158° South 355 409 20,900 -1,301 Descending FlightAware ADS-B
Thu 06:48:16 AM -22.7240 -47.0360 159° South 345 397 20,000 -1,412 Descending FlightAware ADS-B
Thu 06:49:00 AM -22.7890 -47.0090 159° South 341 392 18,900 -1,674 Descending FlightAware ADS-B
Thu 06:49:42 AM -22.8510 -46.9830 159° South 342 394 17,600 -1,725 Descending FlightAware ADS-B
Thu 06:50:20 AM -22.9070 -46.9590 158° South 337 388 16,600 -1,829 Descending FlightAware ADS-B
Thu 06:51:04 AM -22.9710 -46.9320 159° South 336 387 15,100 -2,225 Descending FlightAware ADS-B
Thu 06:51:49 AM -23.0320 -46.9060 159° South 309 356 13,300 -2,643 Descending FlightAware ADS-B
Thu 06:52:28 AM -23.0840 -46.8850 160° South 297 342 11,400 -2,734 Descending FlightAware ADS-B
Thu 06:53:08 AM -23.1340 -46.8640 159° South 291 335 9,700 -2,556 Descending FlightAware ADS-B
Thu 06:53:22 AM -23.1530 -46.8560 159° South 300 345 9,100 -1,435 Descending FlightAware ADS-B
Thu 06:53:54 AM -23.1940 -46.8380 158° South 293 337 8,600 -800 Descending FlightAware ADS-B
Thu 06:54:22 AM -23.2280 -46.8240 159° South 279 321 8,300 -889 Descending FlightAware ADS-B
Thu 06:54:48 AM -23.2590 -46.8110 159° South 280 322 7,800 -857 Descending FlightAware ADS-B
Thu 06:55:18 AM -23.2950 -46.7960 159° South 256 295 7,500 -330 Descending FlightAware ADS-B
Thu 06:56:19 AM -23.3250 -46.7830 158° South 224 258 7,300 -396 Descending FlightAware ADS-B
Thu 06:56:49 AM -23.3780 -46.7570 156° South 198 228 6,900 -931 Descending FlightAware ADS-B
Thu 06:57:17 AM -23.3980 -46.7390 140° Southeast 201 231 6,400 -1,179 Descending FlightAware ADS-B
Thu 06:57:45 AM -23.4180 -46.7200 139° Southeast 201 231 5,800 -1,080 Descending FlightAware ADS-B
Thu 06:58:07 AM -23.4330 -46.7060 139° Southeast 194 223 5,500 -808 Descending FlightAware ADS-B
Thu 06:58:37 AM -23.4510 -46.6840 132° Southeast 195 224 5,100 -652 Descending FlightAware ADS-B
Thu 06:58:53 AM -23.4580 -46.6700 119° Southeast 194 223 5,000 -545 Descending FlightAware ADS-B
Thu 06:59:21 AM -23.4680 -46.6450 114° Southeast 191 220 4,700 -588 Descending FlightAware ADS-B
Thu 06:59:44 AM -23.4740 -46.6250 108° East 190 219 4,500 -514 Descending FlightAware ADS-B
Thu 07:00:31 AM -23.4660 -46.5880 77° East 188 216 4,100 -720 Descending FlightAware ADS-B
Thu 07:00:59 AM -23.4590 -46.5630 73° East 157 181 3,600 -947 Descending FlightAware ADS-B
Thu 07:01:28 AM -23.4540 -46.5430 75° East 143 165 3,200 -778 Descending FlightAware ADS-B
Thu 07:01:53 AM -23.4490 -46.5260 72° East 142 163 2,900 -692 Descending FlightAware ADS-B
Thu 07:02:20 AM -23.4440 -46.5070 74° East 142 163 2,600 -545 Descending FlightAware ADS-B
Thu 07:02:48 AM -23.4400 -46.4930 73° East 142 163 2,400 -211 Descending FlightAware ADS-B
Thu 07:03:17 AM -23.4360 -46.4760 76° East 142 163 2,400  Level FlightAware ADS-B
Thu 07:05:00 AM -23.4321 -46.4695 137° Southeast  Level Estimated
Thu 07:06:00 AM -23.4321 -46.4695 137° Southeast  Level Estimated
Thu 07:07:00 AM -23.4321 -46.4695 137° Southeast  Level Estimated
Thu 07:08:00 AM -23.4321 -46.4695 137° Southeast  Level Estimated
Thu 07:09:00 AM -23.4321 -46.4695 137° Southeast  Level Estimated
Thu 07:10:00 AM -23.4321 -46.4695 137° Southeast  Level Estimated
Thu 07:11:00 AM -23.4321 -46.4695 137° Southeast  Level Estimated
Thu 07:12:00 AM -23.4321 -46.4695 137° Southeast  Level Estimated
Thu 07:13:00 AM -23.4321 -46.4695 137° Southeast  Level Estimated
Thu 07:14:00 AM -23.4321 -46.4695 137° Southeast  Level Estimated
Thu 07:15:00 AM -23.4321 -46.4695 137° Southeast  Level Estimated
Thu 07:16:00 AM -23.4321 -46.4695 137° Southeast  Level Estimated
Thu 07:17:00 AM -23.4321 -46.4695 137° Southeast  Level Estimated
Thu 07:18:00 AM -23.4321 -46.4695 137° Southeast  Level Estimated
Thu 07:19:00 AM -23.4321 -46.4695 137° Southeast  Level Estimated
Thu 07:20:00 AM -23.4321 -46.4695 137° Southeast  Level Estimated
Thu 07:21:00 AM -23.4321 -46.4695 137° Southeast  Level Estimated

Login

Don't have an account? Register now (free) for customized features, flight alerts, and more!